Map

Track Data

SID SEASON NUMBER BASIN SUBBASIN NAME ISO_TIME NATURE LAT LON WMO_WIND WMO_PRES WMO_AGENCY TRACK_TYPE DIST2LAND LANDFALL IFLAG USA_AGENCY USA_ATCF_ID USA_LAT USA_LON USA_RECORD USA_STATUS USA_WIND USA_PRES USA_SSHS USA_R34_NE USA_R34_SE USA_R34_SW USA_R34_NW USA_R50_NE USA_R50_SE USA_R50_SW USA_R50_NW USA_R64_NE USA_R64_SE USA_R64_SW USA_R64_NW USA_POCI USA_ROCI USA_RMW USA_EYE TOKYO_LAT TOKYO_LON TOKYO_GRADE TOKYO_WIND TOKYO_PRES TOKYO_R50_DIR TOKYO_R50_LONG TOKYO_R50_SHORT TOKYO_R30_DIR TOKYO_R30_LONG TOKYO_R30_SHORT TOKYO_LAND CMA_LAT CMA_LON CMA_CAT CMA_WIND CMA_PRES HKO_LAT HKO_LON HKO_CAT HKO_WIND HKO_PRES NEWDELHI_LAT NEWDELHI_LON NEWDELHI_GRADE NEWDELHI_WIND NEWDELHI_PRES NEWDELHI_CI NEWDELHI_DP NEWDELHI_POCI REUNION_LAT REUNION_LON REUNION_TYPE REUNION_WIND REUNION_PRES REUNION_TNUM REUNION_CI REUNION_RMW REUNION_R34_NE REUNION_R34_SE REUNION_R34_SW REUNION_R34_NW REUNION_R50_NE REUNION_R50_SE REUNION_R50_SW REUNION_R50_NW REUNION_R64_NE REUNION_R64_SE REUNION_R64_SW REUNION_R64_NW BOM_LAT BOM_LON BOM_TYPE BOM_WIND BOM_PRES BOM_TNUM BOM_CI BOM_RMW BOM_R34_NE BOM_R34_SE BOM_R34_SW BOM_R34_NW BOM_R50_NE BOM_R50_SE BOM_R50_SW BOM_R50_NW BOM_R64_NE BOM_R64_SE BOM_R64_SW BOM_R64_NW BOM_ROCI BOM_POCI BOM_EYE BOM_POS_METHOD BOM_PRES_METHOD NADI_LAT NADI_LON NADI_CAT NADI_WIND NADI_PRES WELLINGTON_LAT WELLINGTON_LON WELLINGTON_WIND WELLINGTON_PRES DS824_LAT DS824_LON DS824_STAGE DS824_WIND DS824_PRES TD9636_LAT TD9636_LON TD9636_STAGE TD9636_WIND TD9636_PRES TD9635_LAT TD9635_LON TD9635_WIND TD9635_PRES TD9635_ROCI NEUMANN_LAT NEUMANN_LON NEUMANN_CLASS NEUMANN_WIND NEUMANN_PRES MLC_LAT MLC_LON MLC_CLASS MLC_WIND MLC_PRES USA_GUST BOM_GUST BOM_GUST_PER REUNION_GUST REUNION_GUST_PER USA_SEAHGT USA_SEARAD_NE USA_SEARAD_SE USA_SEARAD_SW USA_SEARAD_NW STORM_SPEED STORM_DIR
1903010S13063 1903 2 SI MM NOT_NAMED 1903-01-10 00:00:00 TS -13.4000 62.7000 main 919 885 _________O____ -1 -13.4000 62.7000 TC 6 207
1903010S13063 1903 2 SI MM NOT_NAMED 1903-01-10 03:00:00 TS -13.6875 62.5525 main 885 845 _________P____ -1 -13.6875 62.5525 TC 7 206
1903010S13063 1903 2 SI MM NOT_NAMED 1903-01-10 06:00:00 TS -14.0000 62.4000 main 845 812 _________O____ -1 -14.0000 62.4000 TC 7 204
1903010S13063 1903 2 SI MM NOT_NAMED 1903-01-10 09:00:00 TS -14.3500 62.2425 main 796 763 _________P____ -1 -14.3500 62.2425 TC 8 203
1903010S13063 1903 2 SI MM NOT_NAMED 1903-01-10 12:00:00 TS -14.7000 62.1000 main 763 730 _________O____ -1 -14.7000 62.1000 TC 7 200
1903010S13063 1903 2 SI MM NOT_NAMED 1903-01-10 15:00:00 TS -15.0000 61.9924 main 730 697 _________P____ -1 -15.0000 61.9924 TC 6 198
1903010S13063 1903 2 SI MM NOT_NAMED 1903-01-10 18:00:00 TS -15.3000 61.9000 main 697 664 _________O____ -1 -15.3000 61.9000 TC 7 198
1903010S13063 1903 2 SI MM NOT_NAMED 1903-01-10 21:00:00 TS -15.6425 61.7851 main 664 623 _________P____ -1 -15.6425 61.7851 TC 7 195
1903010S13063 1903 2 SI MM NOT_NAMED 1903-01-11 00:00:00 TS -16.0000 61.7000 main 623 599 _________O____ -1 -16.0000 61.7000 TC 7 188
1903010S13063 1903 2 SI MM NOT_NAMED 1903-01-11 03:00:00 TS -16.3500 61.6849 main 599 568 _________P____ -1 -16.3500 61.6849 TC 7 0
1903010S13063 1903 2 SI MM NOT_NAMED 1903-01-11 06:00:00 TS -16.7000 61.7000 main 568 545 _________O____ -1 -16.7000 61.7000 TC 7 0
1903010S13063 1903 2 SI MM NOT_NAMED 1903-01-11 09:00:00 TS -17.0500 61.7000 main 545 518 _________P____ -1 -17.0500 61.7000 TC 7 0
1903010S13063 1903 2 SI MM NOT_NAMED 1903-01-11 12:00:00 TS -17.4000 61.7000 main 518 499 _________O____ -1 -17.4000 61.7000 TC 7 182
1903010S13063 1903 2 SI MM NOT_NAMED 1903-01-11 15:00:00 TS -17.7575 61.6925 main 493 476 _________P____ -1 -17.7575 61.6925 TC 7 0
1903010S13063 1903 2 SI MM NOT_NAMED 1903-01-11 18:00:00 TS -18.1000 61.7000 main 476 460 _________O____ -1 -18.1000 61.7000 TC 6 176
1903010S13063 1903 2 SI MM NOT_NAMED 1903-01-11 21:00:00 TS -18.4000 61.7425 main 460 455 _________P____ -1 -18.4000 61.7425 TC 6 171
1903010S13063 1903 2 SI MM NOT_NAMED 1903-01-12 00:00:00 TS -18.7000 61.8000 main 455 443 _________O____ -1 -18.7000 61.8000 TC 7 171
1903010S13063 1903 2 SI MM NOT_NAMED 1903-01-12 03:00:00 TS -19.0500 61.8500 main 453 440 _________P____ -1 -19.0500 61.8500 TC 7 172
1903010S13063 1903 2 SI MM NOT_NAMED 1903-01-12 06:00:00 TS -19.4000 61.9000 main 440 433 _________O____ -1 -19.4000 61.9000 TC 7 171
1903010S13063 1903 2 SI MM NOT_NAMED 1903-01-12 09:00:00 TS -19.7150 61.9575 main 443 439 _________P____ -1 -19.7150 61.9575 TC 6 171
1903010S13063 1903 2 SI MM NOT_NAMED 1903-01-12 12:00:00 TS -20.0000 62.0000 main 439 438 _________O____ -1 -20.0000 62.0000 TC 5 176
1903010S13063 1903 2 SI MM NOT_NAMED 1903-01-12 15:00:00 TS -20.2575 62.0001 main 437 437 _________P____ -1 -20.2575 62.0001 TC 5 178
1903010S13063 1903 2 SI MM NOT_NAMED 1903-01-12 18:00:00 TS -20.5000 62.0000 main 438 438 _________O____ -1 -20.5000 62.0000 TC 5 176
1903010S13063 1903 2 SI MM NOT_NAMED 1903-01-12 21:00:00 TS -20.7425 62.0425 main 439 439 _________P____ -1 -20.7425 62.0425 TC 5 169
1903010S13063 1903 2 SI MM NOT_NAMED 1903-01-13 00:00:00 TS -21.0000 62.1000 main 454 454 _________O____ -1 -21.0000 62.1000 TC 6 170
1903010S13063 1903 2 SI MM NOT_NAMED 1903-01-13 03:00:00 TS -21.3000 62.1425 main 460 460 _________P____ -1 -21.3000 62.1425 TC 6 171
1903010S13063 1903 2 SI MM NOT_NAMED 1903-01-13 06:00:00 TS -21.6000 62.2000 main 479 479 _________O____ -1 -21.6000 62.2000 TC 6 165
1903010S13063 1903 2 SI MM NOT_NAMED 1903-01-13 09:00:00 TS -21.8575 62.3000 main 499 499 _________P____ -1 -21.8575 62.3000 TC 5 160
1903010S13063 1903 2 SI MM NOT_NAMED 1903-01-13 12:00:00 TS -22.1000 62.4000 main 517 517 _________O____ -1 -22.1000 62.4000 TC 5 164
1903010S13063 1903 2 SI MM NOT_NAMED 1903-01-13 15:00:00 TS -22.3500 62.4501 main 535 535 _________P____ -1 -22.3500 62.4501 TC 5 170
1903010S13063 1903 2 SI MM NOT_NAMED 1903-01-13 18:00:00 TS -22.6000 62.5000 main 548 548 _________O____ -1 -22.6000 62.5000 TC 5 166
1903010S13063 1903 2 SI MM NOT_NAMED 1903-01-13 21:00:00 TS -22.8500 62.5874 main 572 572 _________P____ -1 -22.8500 62.5874 TC 5 160
1903010S13063 1903 2 SI MM NOT_NAMED 1903-01-14 00:00:00 TS -23.1000 62.7000 main 592 _________O____ -1 -23.1000 62.7000 TC 5 157

About IBTrACS Database

This database is a web-friendly format of International Best Track Archive for Climate Stewardship (IBTrACS), a global best track data archive curated by NOAA dating back to 1842.

Updated: 2021-10-21